Aérodrome :
LOGIN :

S'inscrire | Disclaimer

   EN    FR    IT 

 










Légende :    VFR   VFR Marginal   IFR   IFR Intensif   IFR Très Intensif
Visi : 
Plafond : 
>= 8 km
>= 3000ft
5 à 8 km
1000 à 3000 ft
1500m à 5 km
500 à 1000 ft
800 à 1500m
200 à 500 ft
< 800m
< 200 ft
Symboles :   Orages  Brouillard  Fortes neiges  Fortes précipitations  Vent > 20 kt
SIGMETs :   Divers  Orages  Givrage  Turbulence  Onde Orograph.  Cendres Volcan.






- Altitude de l'aérodrome : 1306 ft
- Code IATA : ACH


LSZR - Alten Rhein

DERNIER METAR :
  • 180620Z VRB02KT 9999 FEW035 SCT042 05/02 Q1029 NOSIG RMK B

METARs EXPIRÉS :
  • 180550Z VRB03KT 9999 -DZ FEW035 SCT042 BKN050 05/03 Q1028 NOSIG RMK A
  • 180520Z VRB03KT 9999 -DZ FEW035 SCT042 BKN050 05/03 Q1028 NOSIG RMK A
  • 180450Z AUTO 30003KT 9999 SCT032 BKN036 05/03 Q1028
  • 180420Z AUTO 23009KT 190V270 9999 -RA FEW040 SCT049 06/02 Q1028 REDZ
  • 180350Z AUTO 23007KT 200V280 9999 FEW055 06/01 Q1028

TAF TAF LSZR
Valide du 18 à 06h jusqu'au 18 à 15h UTC


180525Z 1806/1815 23009KT 9999 SCT035
TEMPO 1810/1815 26015G25KT
ATIS : +41 71 858 51 66



MET'MAP, la Météo Aéronautique d'un coup d'oeil ! - Copyright ORBIFLY Décembre 2007 - Disclaimer

ORBIFLY MET'MAP TEAM :

Programmation & Développement : Alexandra Zaïnal
Sur une idée originale de : Baudouin d'Aumeries
Assistance à la programmation : Marc-Olivier Méhu
Soutien technique & logistique : Manuel Goepfert

Contact : metmap@orbifly.com




SOURCES & CREDITS :

   NOAA